Time;durP1;ratioP1;P1;durP2;ratioP2;P2;SDS_P1;SDS_P2;PMS_P1;PMS_P2;Temp;Humidity;BMP_temperature;BMP_pressure;BME280_temperature;BME280_humidity;BME280_pressure;Samples;Min_cycle;Max_cycle;Signal;HPM_P1;HPM_P2
2021/05/19 00:01:46;;;;;;;5.68;1.58;;;15.40;99.90;;;;;;5093856;28;20024;-78
2021/05/19 00:04:12;;;;;;;2.50;1.40;;;15.40;99.90;;;;;;5093913;28;20027;-78
2021/05/19 00:06:38;;;;;;;2.95;0.63;;;15.20;99.90;;;;;;5093556;28;20416;-78
2021/05/19 00:09:09;;;;;;;0.45;0.45;;;15.00;99.90;;;;;;5093769;28;20266;-78
2021/05/19 00:11:36;;;;;;;0.20;0.20;;;14.90;99.90;;;;;;5093634;28;20023;-78
2021/05/19 00:14:04;;;;;;;1.27;0.30;;;14.80;99.90;;;;;;5093781;28;20478;-78
2021/05/19 00:16:30;;;;;;;0.20;0.20;;;14.70;99.90;;;;;;5092993;28;20028;-78
2021/05/19 00:18:56;;;;;;;0.73;0.20;;;14.60;99.90;;;;;;5092675;28;20032;-78
2021/05/19 00:21:21;;;;;;;1.38;0.20;;;14.40;99.90;;;;;;5093450;28;20016;-78
2021/05/19 00:23:47;;;;;;;0.10;0.10;;;14.30;99.90;;;;;;5075254;28;20020;-78
2021/05/19 00:26:13;;;;;;;0.10;0.10;;;14.10;99.90;;;;;;5093406;28;20031;-78
2021/05/19 00:28:39;;;;;;;0.10;0.10;;;14.10;99.90;;;;;;5093220;28;20039;-78
2021/05/19 00:31:06;;;;;;;1.02;0.10;;;14.10;99.90;;;;;;5093127;28;20512;-78
2021/05/19 00:33:32;;;;;;;0.10;0.10;;;14.00;99.90;;;;;;5075069;28;20027;-78
2021/05/19 00:35:58;;;;;;;0.10;0.10;;;14.00;99.90;;;;;;5075042;28;20524;-78
2021/05/19 00:38:24;;;;;;;1.75;0.10;;;13.90;99.90;;;;;;5092882;28;20119;-78
2021/05/19 00:40:50;;;;;;;0.20;0.20;;;13.80;99.90;;;;;;5092872;28;20024;-78
2021/05/19 00:43:16;;;;;;;0.10;0.10;;;13.80;99.90;;;;;;5093101;28;20024;-78
2021/05/19 00:45:42;;;;;;;0.13;0.10;;;13.70;99.90;;;;;;5092830;28;20020;-78
2021/05/19 00:48:10;;;;;;;0.20;0.20;;;13.70;99.90;;;;;;5092913;28;20028;-78
2021/05/19 00:50:38;;;;;;;0.10;0.10;;;13.70;99.90;;;;;;5092937;28;20016;-78
2021/05/19 00:53:04;;;;;;;0.10;0.10;;;13.70;99.90;;;;;;5093000;28;20107;-78
2021/05/19 00:55:30;;;;;;;0.20;0.20;;;13.60;99.90;;;;;;5092760;28;20020;-78
2021/05/19 00:57:56;;;;;;;0.10;0.10;;;13.70;99.90;;;;;;5092652;28;20024;-78
2021/05/19 01:00:24;;;;;;;0.20;0.20;;;13.70;99.90;;;;;;5092519;28;20428;-78
2021/05/19 01:02:51;;;;;;;0.10;0.10;;;13.60;99.90;;;;;;5074406;28;20024;-78
2021/05/19 01:10:57;;;;;;;0.10;0.10;;;13.70;99.90;;;;;;5092223;28;20078;-78
2021/05/19 01:13:23;;;;;;;0.10;0.10;;;13.70;99.90;;;;;;5092424;28;20016;-79
2021/05/19 01:15:49;;;;;;;0.20;0.20;;;13.60;99.90;;;;;;5092365;28;20103;-78
2021/05/19 01:18:15;;;;;;;0.10;0.10;;;13.60;99.90;;;;;;5092447;28;20401;-78
2021/05/19 01:20:42;;;;;;;0.20;0.20;;;13.60;99.90;;;;;;5091984;28;20020;-78
2021/05/19 01:23:08;;;;;;;0.15;0.15;;;13.70;99.90;;;;;;5092249;28;20020;-78
2021/05/19 01:25:35;;;;;;;0.10;0.10;;;13.70;99.90;;;;;;5092451;28;20024;-78
2021/05/19 01:28:04;;;;;;;0.10;0.10;;;13.70;99.90;;;;;;5092783;28;20020;-78
2021/05/19 01:30:31;;;;;;;0.65;0.65;;;13.80;99.90;;;;;;5091903;28;20393;-78
2021/05/19 01:32:57;;;;;;;0.10;0.10;;;13.80;99.90;;;;;;5091961;28;20028;-79
2021/05/19 01:35:23;;;;;;;1.25;0.20;;;13.80;99.90;;;;;;5092095;28;20414;-79
2021/05/19 01:37:49;;;;;;;0.15;0.15;;;13.80;99.90;;;;;;5073659;28;20028;-79
2021/05/19 01:40:18;;;;;;;7.22;0.30;;;13.80;99.90;;;;;;5091820;28;20035;-78
2021/05/19 01:42:48;;;;;;;0.10;0.10;;;13.90;99.90;;;;;;5092067;28;20063;-79
2021/05/19 01:45:17;;;;;;;0.63;0.17;;;13.90;99.90;;;;;;5091941;28;20028;-78
2021/05/19 01:47:47;;;;;;;0.10;0.10;;;13.90;99.90;;;;;;5092041;28;20047;-78
2021/05/19 01:50:21;;;;;;;0.28;0.10;;;14.00;99.80;;;;;;5091880;28;20020;-79
2021/05/19 01:52:49;;;;;;;4.43;0.22;;;14.00;99.70;;;;;;5091823;28;20110;-78
2021/05/19 01:55:16;;;;;;;0.10;0.10;;;14.00;99.90;;;;;;5091892;28;20035;-79
2021/05/19 01:57:44;;;;;;;0.20;0.10;;;14.00;99.00;;;;;;5073481;28;20028;-78
2021/05/19 02:00:11;;;;;;;0.90;0.32;;;14.10;99.40;;;;;;5073534;28;20031;-79
2021/05/19 02:02:37;;;;;;;0.65;0.20;;;14.10;98.40;;;;;;5091573;28;20020;-79
2021/05/19 02:05:03;;;;;;;0.10;0.10;;;14.20;97.00;;;;;;5091796;28;20075;-79
2021/05/19 02:07:29;;;;;;;0.20;0.20;;;14.20;97.40;;;;;;5091439;28;20016;-79
2021/05/19 02:09:55;;;;;;;0.52;0.20;;;14.30;97.30;;;;;;5091493;28;20031;-79
2021/05/19 02:12:21;;;;;;;2.80;0.28;;;14.40;97.30;;;;;;5091750;28;20478;-79
2021/05/19 02:14:47;;;;;;;0.20;0.20;;;14.40;97.20;;;;;;5091072;28;20023;-79
2021/05/19 02:17:13;;;;;;;1.67;0.20;;;14.40;97.80;;;;;;5091553;28;20016;-79
2021/05/19 02:19:39;;;;;;;0.20;0.20;;;14.40;97.50;;;;;;5073233;28;20474;-79
2021/05/19 02:22:05;;;;;;;1.55;0.15;;;14.50;96.80;;;;;;5091556;28;20027;-79
2021/05/19 02:24:31;;;;;;;0.43;0.20;;;14.50;96.00;;;;;;5073392;28;20027;-79
2021/05/19 02:26:57;;;;;;;0.10;0.10;;;14.50;96.60;;;;;;5091637;28;20024;-79
2021/05/19 02:29:24;;;;;;;1.00;0.35;;;14.50;95.70;;;;;;5091215;28;20438;-79
2021/05/19 02:31:50;;;;;;;0.20;0.20;;;14.40;95.80;;;;;;5091441;28;20107;-79
2021/05/19 02:34:16;;;;;;;0.32;0.30;;;14.40;95.60;;;;;;5091537;28;20505;-79
2021/05/19 02:36:41;;;;;;;0.20;0.20;;;14.50;96.20;;;;;;5091228;28;20047;-79
2021/05/19 02:39:10;;;;;;;0.32;0.20;;;14.60;96.50;;;;;;5091288;28;20024;-79
2021/05/19 02:41:37;;;;;;;0.10;0.10;;;14.60;95.60;;;;;;5073322;28;20020;-79
2021/05/19 02:44:04;;;;;;;0.47;0.20;;;14.70;95.80;;;;;;5094850;28;20016;-79
2021/05/19 02:46:30;;;;;;;0.22;0.20;;;14.60;95.90;;;;;;5095233;28;20016;-79
2021/05/19 02:49:01;;;;;;;2.65;0.25;;;14.60;97.00;;;;;;5095105;28;20039;-79
2021/05/19 02:51:29;;;;;;;1.17;0.30;;;14.60;97.00;;;;;;5095184;28;20020;-79
2021/05/19 02:53:55;;;;;;;0.57;0.28;;;14.70;97.10;;;;;;5077072;28;20551;-79
2021/05/19 02:56:21;;;;;;;0.20;0.20;;;14.70;96.20;;;;;;5095030;28;20028;-79
2021/05/19 02:58:46;;;;;;;0.10;0.10;;;14.60;96.90;;;;;;5094852;28;20102;-79
2021/05/19 03:01:12;;;;;;;0.20;0.20;;;14.60;98.10;;;;;;5077886;28;20016;-79
2021/05/19 03:03:38;;;;;;;0.20;0.20;;;14.60;98.10;;;;;;5096025;28;20588;-79
2021/05/19 03:06:03;;;;;;;0.20;0.20;;;14.60;98.10;;;;;;5077908;28;20023;-79
2021/05/19 03:08:29;;;;;;;0.30;0.30;;;14.60;98.00;;;;;;5096260;28;20093;-77
2021/05/19 03:10:55;;;;;;;5.05;0.40;;;14.70;98.20;;;;;;5095913;28;20454;-77
2021/05/19 03:13:21;;;;;;;1.52;0.50;;;14.70;99.70;;;;;;5096112;28;20035;-77
2021/05/19 03:15:46;;;;;;;1.15;0.50;;;14.60;99.90;;;;;;5095885;28;20027;-77
2021/05/19 03:18:12;;;;;;;2.53;0.55;;;14.60;99.90;;;;;;5095020;28;20620;-77
2021/05/19 03:20:38;;;;;;;1.80;0.80;;;14.60;99.90;;;;;;5095067;28;20107;-77
2021/05/19 03:23:04;;;;;;;4.97;0.95;;;14.60;99.90;;;;;;5095069;28;20466;-77
2021/05/19 03:25:29;;;;;;;2.63;1.40;;;14.70;99.90;;;;;;5095015;28;20024;-77
2021/05/19 03:27:55;;;;;;;5.20;1.23;;;14.60;99.90;;;;;;5094874;28;20024;-77
2021/05/19 03:30:21;;;;;;;2.05;1.00;;;14.70;99.90;;;;;;5094574;28;20101;-77
2021/05/19 03:32:47;;;;;;;4.43;1.40;;;14.60;99.90;;;;;;5094412;28;20501;-77
2021/05/19 03:35:13;;;;;;;2.40;1.48;;;14.60;99.90;;;;;;5094475;28;20036;-77
2021/05/19 03:37:40;;;;;;;3.75;1.58;;;14.60;99.90;;;;;;5094493;28;20082;-77
2021/05/19 03:40:08;;;;;;;2.85;1.15;;;14.60;99.90;;;;;;5090668;28;20027;-77
2021/05/19 03:42:34;;;;;;;4.95;1.30;;;14.70;99.90;;;;;;5074057;28;20104;-77
2021/05/19 03:45:00;;;;;;;5.00;1.95;;;14.70;99.90;;;;;;5073964;28;20116;-77
2021/05/19 03:47:26;;;;;;;4.57;1.50;;;14.70;99.90;;;;;;5073964;28;20024;-77
2021/05/19 03:49:52;;;;;;;1.80;1.70;;;14.70;99.90;;;;;;5073923;28;20025;-77
2021/05/19 03:52:18;;;;;;;3.58;1.45;;;14.70;99.90;;;;;;5074201;28;20367;-77
2021/05/19 03:54:44;;;;;;;1.42;1.33;;;14.60;99.90;;;;;;5068282;22;20569;-79
2021/05/19 03:57:11;;;;;;;2.97;1.38;;;14.60;99.90;;;;;;5035788;28;20444;-79
2021/05/19 03:59:37;;;;;;;2.35;1.33;;;14.60;99.90;;;;;;5035617;28;20437;-79
2021/05/19 04:02:04;;;;;;;3.55;1.30;;;14.50;99.90;;;;;;5053603;28;20028;-79
2021/05/19 04:04:29;;;;;;;3.42;1.77;;;14.40;99.90;;;;;;5053415;28;20023;-79
2021/05/19 04:06:55;;;;;;;3.05;1.40;;;14.40;99.90;;;;;;5053614;28;20108;-79
2021/05/19 04:09:21;;;;;;;2.20;1.23;;;14.30;99.90;;;;;;5035497;28;20558;-79
2021/05/19 04:11:47;;;;;;;3.03;1.20;;;14.30;99.90;;;;;;5053346;28;20130;-79
2021/05/19 04:14:12;;;;;;;2.17;1.13;;;14.30;99.90;;;;;;5053458;28;20029;-79
2021/05/19 04:16:39;;;;;;;2.60;1.40;;;14.40;99.90;;;;;;5053194;28;20086;-79
2021/05/19 04:19:05;;;;;;;2.88;1.17;;;14.40;99.90;;;;;;5050888;28;20055;-79
2021/05/19 04:21:32;;;;;;;5.13;2.00;;;14.40;99.90;;;;;;5034602;28;20017;-79
2021/05/19 04:23:58;;;;;;;3.00;2.15;;;14.30;99.90;;;;;;5053206;28;20017;-79
2021/05/19 04:26:23;;;;;;;2.45;1.90;;;14.30;99.90;;;;;;5053122;28;20020;-79
2021/05/19 04:28:49;;;;;;;3.10;1.77;;;14.40;99.90;;;;;;5035072;28;20017;-79
2021/05/19 04:31:16;;;;;;;3.28;2.05;;;14.40;99.90;;;;;;5053018;28;20036;-79
2021/05/19 04:33:42;;;;;;;2.15;1.50;;;14.50;99.90;;;;;;5052987;28;20049;-79
2021/05/19 04:36:08;;;;;;;2.63;1.75;;;14.40;99.90;;;;;;5053110;28;20508;-79
2021/05/19 04:38:34;;;;;;;5.30;2.58;;;14.40;99.90;;;;;;5052674;28;20025;-79
2021/05/19 04:41:00;;;;;;;2.83;1.85;;;14.40;99.90;;;;;;5052770;28;20390;-79
2021/05/19 04:43:26;;;;;;;2.67;1.40;;;14.40;99.90;;;;;;5052889;28;20020;-79
2021/05/19 04:45:52;;;;;;;2.70;1.40;;;14.50;99.90;;;;;;5052808;28;20055;-79
2021/05/19 04:48:17;;;;;;;3.90;1.48;;;14.40;99.90;;;;;;5052727;28;20025;-79
2021/05/19 04:50:43;;;;;;;1.25;1.10;;;14.40;99.90;;;;;;5052788;28;20028;-78
2021/05/19 04:53:10;;;;;;;0.77;0.65;;;14.50;99.90;;;;;;5034733;28;20227;-78
2021/05/19 04:55:38;;;;;;;1.02;0.82;;;14.40;99.90;;;;;;5034493;28;20151;-78
2021/05/19 04:58:04;;;;;;;0.82;0.57;;;14.50;99.90;;;;;;5052710;28;20394;-78
2021/05/19 05:00:32;;;;;;;2.72;0.80;;;14.40;99.90;;;;;;5052513;28;20043;-78
2021/05/19 05:02:58;;;;;;;1.45;0.95;;;14.40;99.90;;;;;;5052717;28;20023;-78
2021/05/19 05:05:24;;;;;;;0.50;0.50;;;14.30;99.90;;;;;;5034592;28;20017;-78
2021/05/19 05:07:49;;;;;;;1.98;0.60;;;14.30;99.90;;;;;;5053193;28;20029;-78
2021/05/19 05:10:15;;;;;;;3.00;0.60;;;14.30;99.90;;;;;;5052416;28;20124;-78
2021/05/19 05:12:43;;;;;;;3.05;0.65;;;14.30;99.90;;;;;;5034669;28;20094;-78
2021/05/19 05:15:14;;;;;;;2.72;0.40;;;14.20;99.90;;;;;;5034706;28;20086;-78
2021/05/19 05:17:40;;;;;;;0.43;0.43;;;14.20;99.90;;;;;;5052442;28;20467;-78
2021/05/19 05:20:08;;;;;;;0.50;0.50;;;14.10;99.90;;;;;;5051911;28;20028;-78
2021/05/19 05:22:34;;;;;;;0.93;0.40;;;14.10;99.90;;;;;;5034075;28;20087;-78
2021/05/19 05:25:00;;;;;;;4.22;0.50;;;14.10;99.90;;;;;;5052048;28;20351;-78
2021/05/19 05:27:26;;;;;;;1.00;0.52;;;14.00;99.90;;;;;;5052131;28;20027;-79
2021/05/19 05:29:52;;;;;;;0.50;0.50;;;14.00;99.90;;;;;;5051785;28;20291;-79
2021/05/19 05:32:18;;;;;;;1.92;0.40;;;14.00;99.90;;;;;;5034302;28;20053;-79
2021/05/19 05:34:43;;;;;;;1.17;0.47;;;14.00;99.90;;;;;;5033935;28;20021;-79
2021/05/19 05:37:09;;;;;;;3.53;0.40;;;14.00;99.90;;;;;;5051942;28;20033;-79
2021/05/19 05:39:35;;;;;;;1.05;0.70;;;14.00;99.90;;;;;;5051726;28;20021;-79
2021/05/19 05:42:01;;;;;;;0.60;0.38;;;13.90;99.90;;;;;;5033768;28;20485;-79
2021/05/19 05:44:26;;;;;;;0.95;0.75;;;14.00;99.90;;;;;;5051687;28;20021;-79
2021/05/19 05:46:52;;;;;;;2.47;0.65;;;13.90;99.90;;;;;;5051926;28;20104;-79
2021/05/19 05:49:18;;;;;;;3.08;0.80;;;14.00;99.90;;;;;;5033712;28;20033;-79
2021/05/19 05:51:44;;;;;;;2.28;0.80;;;14.00;99.90;;;;;;5051696;28;20502;-79
2021/05/19 05:54:11;;;;;;;3.35;0.77;;;14.10;99.90;;;;;;5051556;28;20037;-79
2021/05/19 05:56:38;;;;;;;4.88;1.10;;;14.20;99.90;;;;;;5033628;28;20506;-79
2021/05/19 05:59:03;;;;;;;4.28;1.15;;;14.30;99.90;;;;;;5033463;28;20029;-79
2021/05/19 06:01:29;;;;;;;1.73;1.63;;;14.40;99.90;;;;;;5051647;28;20051;-79
2021/05/19 06:03:55;;;;;;;5.32;3.08;;;14.50;99.90;;;;;;5051341;28;20045;-79
2021/05/19 06:06:20;;;;;;;7.82;4.85;;;14.50;99.90;;;;;;5051393;28;20025;-79
2021/05/19 06:08:46;;;;;;;5.07;4.57;;;14.60;99.90;;;;;;5051250;28;20043;-78
2021/05/19 06:11:12;;;;;;;6.80;6.13;;;14.60;99.90;;;;;;5051160;28;20104;-79
2021/05/19 06:13:38;;;;;;;8.90;7.53;;;14.60;99.90;;;;;;5048153;28;20017;-79
2021/05/19 06:16:04;;;;;;;12.40;8.70;;;14.60;99.90;;;;;;5033570;28;20033;-79
2021/05/19 06:18:30;;;;;;;8.65;7.93;;;14.60;99.90;;;;;;5053719;28;20047;-79
2021/05/19 06:20:56;;;;;;;10.70;8.63;;;14.70;99.90;;;;;;5037742;28;20043;-79
2021/05/19 06:23:21;;;;;;;9.18;8.30;;;14.70;99.90;;;;;;5055316;28;20025;-79
2021/05/19 06:25:47;;;;;;;7.95;7.15;;;14.70;99.90;;;;;;5056776;28;20018;-79
2021/05/19 06:28:13;;;;;;;8.40;7.50;;;14.80;99.90;;;;;;5056168;28;20032;-79
2021/05/19 06:30:39;;;;;;;10.48;7.50;;;14.80;99.90;;;;;;5055293;28;20021;-79
2021/05/19 06:33:05;;;;;;;7.55;6.90;;;14.80;99.90;;;;;;5055337;28;20112;-79
2021/05/19 06:35:31;;;;;;;8.05;5.60;;;14.90;99.90;;;;;;5055196;28;20017;-79
2021/05/19 06:37:56;;;;;;;7.32;6.63;;;14.90;99.90;;;;;;5055098;28;20033;-79
2021/05/19 06:40:23;;;;;;;5.35;4.95;;;14.90;99.90;;;;;;5037143;28;20486;-78
2021/05/19 06:42:49;;;;;;;5.15;4.75;;;15.00;99.90;;;;;;5037331;28;20075;-79
2021/05/19 06:45:16;;;;;;;6.32;5.00;;;15.10;99.90;;;;;;5054993;28;20024;-78
2021/05/19 06:47:41;;;;;;;5.55;4.28;;;15.10;99.90;;;;;;5035240;28;20021;-78
2021/05/19 06:50:08;;;;;;;4.30;3.92;;;15.20;99.90;;;;;;5028576;28;20505;-79
2021/05/19 06:52:34;;;;;;;4.35;3.78;;;15.00;99.90;;;;;;5017064;28;20119;-78
2021/05/19 06:55:06;;;;;;;4.28;3.97;;;15.00;99.90;;;;;;5034892;28;20049;-78
2021/05/19 06:57:32;;;;;;;4.70;3.63;;;15.10;99.90;;;;;;5035012;28;20510;-79
2021/05/19 06:59:58;;;;;;;5.00;4.57;;;15.20;99.90;;;;;;5034842;28;20049;-79
2021/05/19 07:02:23;;;;;;;6.00;5.28;;;15.30;99.90;;;;;;5033659;28;20060;-79
2021/05/19 07:04:49;;;;;;;4.80;4.30;;;15.40;99.90;;;;;;5034838;28;20471;-79
2021/05/19 07:07:15;;;;;;;3.95;3.65;;;15.40;99.90;;;;;;5016757;28;20018;-78
2021/05/19 07:09:41;;;;;;;5.65;4.00;;;15.40;99.90;;;;;;5033318;28;20076;-78
2021/05/19 07:12:17;;;;;;;5.70;4.90;;;15.40;99.90;;;;;;5053254;28;20029;-78
2021/05/19 07:15:03;;;;;;;6.43;5.55;;;15.50;99.90;;;;;;5022384;28;20120;-79
2021/05/19 07:17:29;;;;;;;3.42;3.17;;;15.50;99.90;;;;;;5034445;28;20025;-78
2021/05/19 07:19:54;;;;;;;5.57;2.92;;;15.60;99.90;;;;;;5034333;28;20029;-78
2021/05/19 07:22:20;;;;;;;4.65;2.70;;;15.60;99.90;;;;;;5038419;28;20106;-78
2021/05/19 07:24:48;;;;;;;4.85;3.15;;;15.70;99.90;;;;;;5040737;28;20143;-78
2021/05/19 07:27:14;;;;;;;4.63;4.00;;;15.70;99.90;;;;;;5042305;28;20497;-78
2021/05/19 07:29:39;;;;;;;4.28;3.90;;;15.70;99.90;;;;;;5042849;28;20024;-78
2021/05/19 07:32:06;;;;;;;4.18;3.80;;;15.70;99.90;;;;;;5025657;28;20379;-78
2021/05/19 07:34:35;;;;;;;5.63;4.50;;;15.80;99.90;;;;;;5043978;28;20438;-80
2021/05/19 07:37:01;;;;;;;4.25;3.85;;;15.80;99.90;;;;;;5039384;28;20474;-80
2021/05/19 07:39:26;;;;;;;6.72;4.22;;;15.90;99.90;;;;;;5019115;28;20860;-80
2021/05/19 07:41:52;;;;;;;4.35;4.05;;;15.90;99.90;;;;;;5038016;28;20021;-81
2021/05/19 07:44:18;;;;;;;5.03;4.57;;;15.90;99.90;;;;;;5020332;28;20390;-81
2021/05/19 07:46:44;;;;;;;4.50;4.10;;;15.90;99.90;;;;;;5037773;28;20122;-80
2021/05/19 07:49:09;;;;;;;6.65;4.20;;;15.80;99.90;;;;;;5018651;28;20034;-80
2021/05/19 07:51:35;;;;;;;5.05;4.15;;;15.90;99.90;;;;;;5039031;28;20016;-80
2021/05/19 07:54:02;;;;;;;4.65;3.80;;;16.00;99.90;;;;;;5037164;28;20038;-80
2021/05/19 07:59:08;;;;;;;3.80;3.60;;;16.30;99.90;;;;;;5036892;28;20368;-80
2021/05/19 08:04:06;;;;;;;4.22;3.85;;;16.50;99.90;;;;;;5038636;28;20017;-80
2021/05/19 08:06:34;;;;;;;5.38;3.88;;;16.60;99.90;;;;;;5036021;28;20116;-80
2021/05/19 08:09:00;;;;;;;3.80;3.50;;;16.60;99.90;;;;;;5033373;28;20073;-80
2021/05/19 08:11:26;;;;;;;5.28;3.85;;;16.70;99.90;;;;;;5040219;28;20114;-80
2021/05/19 08:13:51;;;;;;;3.40;3.13;;;16.60;99.90;;;;;;5036505;28;20052;-81
2021/05/19 08:16:17;;;;;;;7.50;3.10;;;16.50;99.90;;;;;;5037016;28;20068;-80
2021/05/19 08:18:43;;;;;;;3.13;2.80;;;16.30;99.90;;;;;;5035164;28;20032;-81
2021/05/19 08:21:10;;;;;;;2.90;2.70;;;16.30;99.90;;;;;;5020313;28;20487;-81
2021/05/19 08:23:36;;;;;;;4.88;2.83;;;16.30;99.90;;;;;;5021866;28;20118;-81
2021/05/19 08:26:04;;;;;;;5.22;2.67;;;16.40;99.90;;;;;;5035716;28;20044;-80
2021/05/19 08:28:32;;;;;;;3.20;2.40;;;16.50;99.90;;;;;;5037537;28;20029;-78
2021/05/19 08:30:58;;;;;;;2.85;2.45;;;16.70;99.90;;;;;;5033635;28;20108;-78
2021/05/19 08:33:23;;;;;;;2.10;2.00;;;16.80;99.90;;;;;;5033821;28;20589;-78
2021/05/19 08:35:49;;;;;;;2.20;2.10;;;16.90;99.90;;;;;;5036641;28;20521;-77
2021/05/19 08:38:15;;;;;;;1.90;1.80;;;17.00;99.90;;;;;;5036013;28;20018;-79
2021/05/19 08:40:41;;;;;;;1.90;1.80;;;17.10;99.90;;;;;;5039226;28;20103;-78
2021/05/19 08:43:11;;;;;;;2.17;2.08;;;17.20;99.90;;;;;;5011701;28;20091;-78
2021/05/19 08:45:37;;;;;;;2.17;2.08;;;17.20;99.90;;;;;;5029285;28;20112;-78
2021/05/19 08:48:04;;;;;;;2.17;2.00;;;17.20;99.90;;;;;;5028701;28;20633;-78
2021/05/19 08:50:32;;;;;;;2.85;1.63;;;17.20;99.90;;;;;;5029081;28;20079;-79
2021/05/19 08:53:05;;;;;;;2.05;1.95;;;17.20;99.90;;;;;;5011063;28;20036;-80
2021/05/19 08:55:31;;;;;;;1.98;1.88;;;17.10;99.90;;;;;;5027986;28;20045;-79
2021/05/19 08:57:56;;;;;;;6.53;2.40;;;17.20;99.90;;;;;;5010384;28;20036;-79
2021/05/19 09:00:23;;;;;;;2.38;2.28;;;17.20;99.90;;;;;;5028459;28;20025;-79
2021/05/19 09:03:09;;;;;;;2.75;2.55;;;17.10;99.90;;;;;;5010230;28;20018;-79
2021/05/19 09:05:37;;;;;;;3.20;2.90;;;16.90;99.90;;;;;;5027835;28;20022;-80
2021/05/19 09:08:20;;;;;;;4.03;2.60;;;16.90;99.90;;;;;;5027707;28;20108;-78
2021/05/19 09:11:03;;;;;;;5.22;2.70;;;16.90;99.90;;;;;;5036892;28;20035;-79
2021/05/19 09:13:36;;;;;;;3.25;2.30;;;17.00;99.90;;;;;;5047468;28;20025;-80
2021/05/19 09:16:04;;;;;;;2.70;2.47;;;16.90;99.90;;;;;;5029662;28;20021;-79
2021/05/19 09:18:56;;;;;;;2.78;2.35;;;16.90;99.90;;;;;;5040228;28;20078;-81
2021/05/19 09:21:39;;;;;;;4.90;3.15;;;17.00;99.90;;;;;;5027888;28;20076;-78
2021/05/19 09:24:20;;;;;;;4.35;3.42;;;17.00;99.90;;;;;;5030198;28;20464;-79
2021/05/19 09:26:58;;;;;;;5.07;2.55;;;17.00;99.90;;;;;;5028030;28;20423;-78
2021/05/19 09:29:26;;;;;;;3.55;3.25;;;17.10;99.90;;;;;;5027984;28;20032;-78
2021/05/19 09:32:10;;;;;;;3.63;3.33;;;17.10;99.90;;;;;;5027602;28;20030;-79
2021/05/19 09:34:52;;;;;;;3.47;2.83;;;17.10;99.90;;;;;;5009953;28;20021;-79
2021/05/19 09:37:27;;;;;;;2.75;2.55;;;17.40;99.90;;;;;;5027908;28;20026;-78
2021/05/19 09:39:58;;;;;;;2.90;2.70;;;17.40;99.90;;;;;;5028959;28;20049;-79
2021/05/19 09:42:46;;;;;;;2.67;2.58;;;17.40;99.90;;;;;;5029567;28;20446;-79
2021/05/19 09:45:29;;;;;;;4.05;2.80;;;17.50;99.90;;;;;;5047691;28;20386;-78
2021/05/19 09:47:56;;;;;;;2.30;2.10;;;17.70;99.90;;;;;;5047707;28;20025;-79
2021/05/19 09:50:35;;;;;;;2.75;2.53;;;17.70;99.90;;;;;;5047048;28;20029;-78
2021/05/19 09:53:13;;;;;;;4.82;3.30;;;17.70;99.40;;;;;;5046262;28;20048;-79
2021/05/19 09:56:00;;;;;;;3.67;3.38;;;17.60;99.20;;;;;;5047035;28;20049;-78
2021/05/19 09:58:40;;;;;;;2.47;2.28;;;17.60;99.90;;;;;;5012561;28;20033;-79
2021/05/19 10:01:06;;;;;;;2.70;2.15;;;17.70;99.90;;;;;;5030031;28;20505;-78
2021/05/19 10:03:34;;;;;;;3.00;2.70;;;17.80;99.50;;;;;;5046848;28;20025;-78
2021/05/19 10:09:04;;;;;;;3.22;2.92;;;18.00;99.40;;;;;;5005245;28;20026;-78
2021/05/19 10:11:31;;;;;;;4.60;3.38;;;18.10;99.00;;;;;;5004784;28;20037;-78
2021/05/19 10:13:58;;;;;;;4.20;3.50;;;18.20;98.40;;;;;;5012265;28;20422;-78
2021/05/19 10:16:24;;;;;;;4.32;2.75;;;18.20;97.90;;;;;;5027843;28;20167;-78
2021/05/19 10:18:54;;;;;;;3.17;2.97;;;18.40;99.40;;;;;;5026487;28;20037;-79
2021/05/19 10:21:21;;;;;;;3.40;3.03;;;18.40;97.90;;;;;;5026713;28;20033;-79
2021/05/19 10:26:30;;;;;;;2.58;2.38;;;18.50;96.70;;;;;;5027691;28;20116;-80
2021/05/19 10:28:56;;;;;;;3.60;3.30;;;18.60;97.80;;;;;;5026835;28;20578;-81
2021/05/19 10:31:31;;;;;;;2.72;2.53;;;18.70;96.60;;;;;;5008900;28;20040;-79
2021/05/19 10:33:59;;;;;;;2.88;2.75;;;18.70;97.10;;;;;;5026785;28;20032;-78
2021/05/19 10:36:25;;;;;;;2.70;2.50;;;18.90;98.40;;;;;;5027449;28;20026;-79
2021/05/19 10:39:19;;;;;;;3.72;2.45;;;19.00;96.40;;;;;;5026264;28;20084;-78
2021/05/19 10:41:52;;;;;;;5.30;2.78;;;19.20;97.80;;;;;;5026398;28;20028;-78
2021/05/19 10:44:26;;;;;;;2.92;2.72;;;19.30;95.70;;;;;;5051005;28;20013;-79
2021/05/19 10:49:42;;;;;;;3.55;2.72;;;19.40;95.40;;;;;;5050967;28;20385;-75
2021/05/19 10:57:43;;;;;;;3.00;2.30;;;19.90;95.90;;;;;;5051534;28;20067;-77
2021/05/19 11:00:12;;;;;;;2.38;1.95;;;20.10;95.10;;;;;;5051346;28;20048;-76
2021/05/19 11:02:57;;;;;;;3.50;2.25;;;20.30;94.60;;;;;;5051324;28;20013;-78
2021/05/19 11:05:35;;;;;;;2.25;2.05;;;20.40;93.80;;;;;;5036765;28;20033;-79
2021/05/19 11:08:06;;;;;;;2.60;2.40;;;20.60;92.90;;;;;;5036574;28;20471;-79
2021/05/19 11:10:36;;;;;;;6.30;2.08;;;20.50;91.40;;;;;;5054550;28;20115;-79
2021/05/19 11:13:03;;;;;;;4.80;1.90;;;20.40;91.30;;;;;;5054346;28;20594;-79
2021/05/19 11:20:52;;;;;;;6.25;1.95;;;20.50;91.50;;;;;;5054332;28;20473;-79
2021/05/19 11:23:18;;;;;;;4.22;1.90;;;20.60;92.10;;;;;;5054293;28;20031;-78
2021/05/19 11:25:44;;;;;;;2.38;1.83;;;20.70;91.20;;;;;;5054575;28;20017;-79
2021/05/19 11:28:11;;;;;;;2.03;1.83;;;20.70;90.90;;;;;;5036374;28;20096;-79
2021/05/19 11:30:37;;;;;;;1.88;1.60;;;20.60;90.90;;;;;;5054141;28;20033;-79
2021/05/19 11:33:07;;;;;;;1.73;1.63;;;20.50;90.30;;;;;;5054318;28;20092;-79
2021/05/19 11:35:33;;;;;;;2.15;2.05;;;20.60;89.90;;;;;;5036463;28;20067;-79
2021/05/19 11:38:02;;;;;;;1.90;1.80;;;20.70;88.00;;;;;;5053883;28;20078;-79
2021/05/19 11:40:37;;;;;;;2.25;1.83;;;20.80;88.20;;;;;;5053924;28;20021;-78
2021/05/19 11:43:03;;;;;;;3.83;1.77;;;20.80;85.60;;;;;;5054048;28;20021;-79
2021/05/19 11:45:29;;;;;;;1.92;1.48;;;21.00;86.70;;;;;;5054005;28;20070;-79
2021/05/19 11:47:54;;;;;;;1.70;1.60;;;21.10;87.80;;;;;;5053963;28;20025;-79
2021/05/19 11:50:25;;;;;;;1.80;1.70;;;20.90;87.50;;;;;;5053707;28;20059;-79
2021/05/19 11:52:58;;;;;;;2.15;1.65;;;20.90;86.80;;;;;;5035909;28;20220;-79
2021/05/19 11:55:33;;;;;;;1.98;1.77;;;20.80;88.20;;;;;;5035900;28;20052;-79
2021/05/19 11:58:19;;;;;;;1.80;1.70;;;20.70;88.00;;;;;;5053744;28;20108;-78
2021/05/19 12:00:49;;;;;;;2.15;1.92;;;20.60;87.20;;;;;;5053916;28;20017;-79
2021/05/19 12:03:17;;;;;;;4.90;1.98;;;20.40;86.60;;;;;;5053784;28;20060;-78
2021/05/19 12:05:54;;;;;;;1.88;1.67;;;20.30;88.40;;;;;;5053680;28;20052;-78
2021/05/19 12:08:47;;;;;;;1.85;1.75;;;20.20;87.80;;;;;;5053544;28;20025;-78
2021/05/19 12:11:22;;;;;;;1.55;1.45;;;20.10;87.40;;;;;;5053393;28;20021;-78
2021/05/19 12:13:54;;;;;;;2.13;1.60;;;20.10;88.30;;;;;;5050169;28;20019;-79
2021/05/19 12:16:30;;;;;;;2.13;2.00;;;20.00;87.80;;;;;;5052711;28;20036;-79
2021/05/19 12:19:00;;;;;;;2.85;2.00;;;20.00;87.50;;;;;;5053318;28;20425;-79
2021/05/19 12:21:27;;;;;;;1.77;1.67;;;19.90;87.20;;;;;;5053336;28;20044;-78
2021/05/19 12:23:53;;;;;;;3.90;1.67;;;20.00;87.90;;;;;;5053655;28;20063;-79
2021/05/19 12:26:20;;;;;;;1.67;1.58;;;19.90;86.50;;;;;;5053760;28;20017;-79
2021/05/19 12:28:46;;;;;;;7.15;1.98;;;20.00;88.50;;;;;;5053319;28;20385;-78
2021/05/19 12:31:29;;;;;;;1.55;1.45;;;20.00;88.50;;;;;;5053447;28;20502;-78
2021/05/19 12:33:55;;;;;;;1.77;1.67;;;20.10;87.80;;;;;;5053665;28;20032;-79
2021/05/19 12:36:28;;;;;;;2.67;1.75;;;20.10;86.00;;;;;;5035060;28;20033;-79
2021/05/19 12:39:01;;;;;;;2.42;2.22;;;20.10;85.50;;;;;;5052807;28;20234;-78
2021/05/19 12:41:43;;;;;;;1.98;1.88;;;20.00;85.40;;;;;;5035094;28;20025;-79
2021/05/19 12:44:11;;;;;;;2.40;2.20;;;19.80;85.80;;;;;;5052893;28;20104;-79
2021/05/19 12:46:37;;;;;;;2.75;1.75;;;19.80;88.60;;;;;;5052660;28;20031;-79
2021/05/19 12:49:10;;;;;;;2.03;1.92;;;19.70;89.30;;;;;;5052864;28;20100;-78
2021/05/19 12:51:49;;;;;;;2.30;2.20;;;19.60;87.10;;;;;;5052906;28;20479;-78
2021/05/19 12:54:21;;;;;;;4.05;2.08;;;19.50;86.20;;;;;;5052409;28;20052;-79
2021/05/19 12:57:08;;;;;;;3.60;2.13;;;19.50;86.00;;;;;;5034668;28;20033;-79
2021/05/19 12:59:56;;;;;;;2.05;1.95;;;19.40;86.20;;;;;;5052464;28;20398;-78
2021/05/19 13:02:24;;;;;;;2.05;1.90;;;19.40;88.00;;;;;;5052578;28;20102;-79
2021/05/19 13:04:54;;;;;;;2.92;2.00;;;19.30;87.90;;;;;;5052444;28;20378;-79
2021/05/19 13:07:23;;;;;;;1.75;1.65;;;19.30;87.40;;;;;;5052391;28;20394;-79
2021/05/19 13:10:17;;;;;;;1.92;1.83;;;19.30;87.50;;;;;;5052184;28;20021;-79
2021/05/19 13:12:57;;;;;;;2.05;1.88;;;19.30;89.20;;;;;;5052413;28;20154;-79
2021/05/19 13:15:33;;;;;;;2.08;1.90;;;19.30;90.00;;;;;;5052321;28;20032;-79
2021/05/19 13:18:06;;;;;;;3.75;2.42;;;19.20;90.70;;;;;;5051945;28;20021;-79
2021/05/19 13:20:37;;;;;;;2.97;2.20;;;19.20;91.40;;;;;;5052387;28;20027;-79
2021/05/19 13:23:05;;;;;;;1.80;1.70;;;19.10;90.10;;;;;;5052981;28;20024;-79